createdAt,value
2022-08-12T00:01:13.790Z,100433.19
2022-08-12T00:03:59.381Z,100436.94
2022-08-12T00:06:47.518Z,100434.50
2022-08-12T00:09:33.239Z,100413.81
2022-08-12T00:12:19.854Z,100434.19
2022-08-12T00:15:05.509Z,100429.28
2022-08-12T00:17:52.813Z,100431.47
2022-08-12T00:20:38.362Z,100439.25
2022-08-12T00:23:23.977Z,100453.88
2022-08-12T00:26:23.620Z,100452.88
2022-08-12T00:29:13.955Z,100443.53
2022-08-12T00:32:02.391Z,100448.91
2022-08-12T00:34:51.799Z,100449.69
2022-08-12T00:37:43.209Z,100408.31
2022-08-12T00:40:32.050Z,100438.97
2022-08-12T00:43:00.103Z,100438.16
2022-08-12T00:45:47.455Z,100412.88
2022-08-12T00:48:15.666Z,100426.38
2022-08-12T00:50:43.424Z,100438.91
2022-08-12T00:53:11.839Z,100439.88
2022-08-12T00:55:46.905Z,100440.69
2022-08-12T00:58:20.676Z,100447.38
2022-08-12T01:00:50.892Z,100447.25
2022-08-12T01:03:20.914Z,100442.66
2022-08-12T01:06:07.752Z,100446.41
2022-08-12T01:08:53.816Z,100430.59
2022-08-12T01:11:33.310Z,100447.53
2022-08-12T01:14:02.068Z,100448.53
2022-08-12T01:16:30.436Z,100445.47
2022-08-12T01:18:59.081Z,100447.28
2022-08-12T01:22:14.306Z,100444.78
2022-08-12T01:25:00.196Z,100440.75
2022-08-12T01:27:29.469Z,100436.16
2022-08-12T01:30:03.654Z,100439.94
2022-08-12T01:32:38.181Z,100437.97
2022-08-12T01:35:12.832Z,100446.59
2022-08-12T01:38:04.649Z,100438.22
2022-08-12T01:40:38.231Z,100434.91
2022-08-12T01:43:09.590Z,100442.41
2022-08-12T01:45:47.660Z,100441.16
2022-08-12T01:48:19.793Z,100450.44
2022-08-12T01:52:20.416Z,100452.69
2022-08-12T01:54:17.123Z,100429.75
2022-08-12T01:56:58.922Z,100448.22
2022-08-12T01:59:50.506Z,100459.63
2022-08-12T02:02:22.522Z,100451.81
2022-08-12T02:05:23.421Z,100396.44
2022-08-12T02:08:19.622Z,100450.97
2022-08-12T02:11:24.658Z,100447.66
2022-08-12T02:14:31.714Z,100423.44
2022-08-12T02:17:24.142Z,100449.81
2022-08-12T02:20:22.056Z,100451.53
2022-08-12T02:22:52.348Z,100451.22
2022-08-12T02:25:34.075Z,100443.84
2022-08-12T02:28:01.421Z,100449.13
2022-08-12T02:30:41.783Z,100449.41
2022-08-12T02:33:11.567Z,100439.78
2022-08-12T02:35:39.931Z,100447.72
2022-08-12T02:38:10.395Z,100445.28
2022-08-12T02:40:55.498Z,100440.56
2022-08-12T02:44:02.818Z,100447.94
2022-08-12T02:46:33.598Z,100438.41
2022-08-12T02:49:25.761Z,100442.19
2022-08-12T02:51:53.164Z,100435.78
2022-08-12T02:54:22.576Z,100438.41
2022-08-12T02:56:50.981Z,100430.41
2022-08-12T02:59:22.410Z,100440.69
2022-08-12T03:01:56.236Z,100441.44
2022-08-12T03:04:41.477Z,100442.84
2022-08-12T03:07:21.109Z,100445.81
2022-08-12T03:10:04.301Z,100450.69
2022-08-12T03:12:48.926Z,100439.19
2022-08-12T03:15:18.585Z,100432.56
2022-08-12T03:18:25.613Z,100440.59
2022-08-12T03:20:53.899Z,100441.81
2022-08-12T03:23:29.097Z,100442.91
2022-08-12T03:26:02.870Z,100443.50
2022-08-12T03:28:51.561Z,100444.53
2022-08-12T03:31:32.089Z,100452.78
2022-08-12T03:34:03.226Z,100435.59
2022-08-12T03:36:35.850Z,100419.69
2022-08-12T03:39:19.098Z,100452.09
2022-08-12T03:42:28.330Z,100452.63
2022-08-12T03:45:32.609Z,100453.63
2022-08-12T03:48:25.731Z,100465.41
2022-08-12T03:51:12.511Z,100459.28
2022-08-12T03:53:59.284Z,100460.31
2022-08-12T03:56:45.222Z,100398.88
2022-08-12T03:59:31.169Z,100460.56
2022-08-12T04:02:01.128Z,100462.75
2022-08-12T04:04:34.393Z,100464.44
2022-08-12T04:07:10.005Z,100464.31
2022-08-12T04:09:42.559Z,100464.03
2022-08-12T04:12:35.734Z,100465.13
2022-08-12T04:15:03.315Z,100474.00
2022-08-12T04:17:31.325Z,100472.34
2022-08-12T04:19:59.797Z,100464.81
2022-08-12T04:22:30.064Z,100481.66
2022-08-12T04:25:01.596Z,100477.03
2022-08-12T04:27:35.659Z,100481.75
2022-08-12T04:30:16.476Z,100484.28
2022-08-12T04:33:01.064Z,100441.88
2022-08-12T04:35:34.227Z,100467.72
2022-08-12T04:38:05.733Z,100453.09
2022-08-12T04:41:12.986Z,100473.44
2022-08-12T04:44:01.293Z,100480.75
2022-08-12T04:46:52.073Z,100482.22
2022-08-12T04:49:39.597Z,100470.47
2022-08-12T04:52:07.351Z,100482.53
2022-08-12T04:54:39.900Z,100465.13
2022-08-12T04:57:10.080Z,100434.09
2022-08-12T04:59:48.785Z,100479.00
2022-08-12T05:02:21.586Z,100478.38
2022-08-12T05:05:01.122Z,100462.44
2022-08-12T05:07:53.119Z,100477.47
2022-08-12T05:10:33.808Z,100442.97
2022-08-12T05:13:10.195Z,100484.47
2022-08-12T05:16:05.287Z,100485.81
2022-08-12T05:18:39.956Z,100494.50
2022-08-12T05:21:08.723Z,100487.06
2022-08-12T05:23:40.057Z,100500.44
2022-08-12T05:26:07.868Z,100488.78
2022-08-12T05:28:35.949Z,100495.22
2022-08-12T05:31:03.260Z,100471.13
2022-08-12T05:33:41.285Z,100500.31
2022-08-12T05:36:12.862Z,100509.28
2022-08-12T05:38:59.792Z,100501.78
2022-08-12T05:41:29.606Z,100506.63
2022-08-12T05:44:02.285Z,100513.50
2022-08-12T05:46:31.472Z,100476.53
2022-08-12T05:49:00.991Z,100507.53
2022-08-12T05:51:40.374Z,100517.31
2022-08-12T05:54:12.316Z,100510.56
2022-08-12T05:56:41.073Z,100493.00
2022-08-12T05:59:11.445Z,100517.81
2022-08-12T06:02:10.503Z,100521.91
2022-08-12T06:04:37.003Z,100523.88
2022-08-12T06:08:00.756Z,100525.75
2022-08-12T06:10:04.282Z,100524.28
2022-08-12T06:12:31.520Z,100481.41
2022-08-12T06:15:02.179Z,100517.78
2022-08-12T06:17:31.367Z,100510.28
2022-08-12T06:20:27.770Z,100517.34
2022-08-12T06:22:54.270Z,100514.72
2022-08-12T06:25:29.337Z,100525.75
2022-08-12T06:28:06.920Z,100534.19
2022-08-12T06:30:41.526Z,100533.81
2022-08-12T06:33:22.293Z,100526.28
2022-08-12T06:36:00.211Z,100529.78
2022-08-12T06:38:37.055Z,100527.94
2022-08-12T06:41:25.563Z,100520.84
2022-08-12T06:44:04.889Z,100522.91
2022-08-12T06:46:42.226Z,100530.94
2022-08-12T06:49:15.076Z,100505.53
2022-08-12T06:51:56.858Z,100528.72
2022-08-12T06:54:35.712Z,100524.09
2022-08-12T06:58:06.179Z,100522.06
2022-08-12T07:00:05.066Z,100509.97
2022-08-12T07:02:37.403Z,100514.00
2022-08-12T07:05:10.464Z,100511.09
2022-08-12T07:07:44.568Z,100520.34
2022-08-12T07:10:19.403Z,100515.25
2022-08-12T07:12:55.843Z,100504.66
2022-08-12T07:15:36.297Z,100520.19
2022-08-12T07:18:23.363Z,100514.22
2022-08-12T07:20:59.721Z,100512.31
2022-08-12T07:23:36.520Z,100512.84
2022-08-12T07:26:09.639Z,100493.94
2022-08-12T07:28:41.690Z,100512.75
2022-08-12T07:31:09.648Z,100519.31
2022-08-12T07:33:39.805Z,100522.16
2022-08-12T07:36:11.765Z,100526.38
2022-08-12T07:38:45.938Z,100519.72
2022-08-12T07:41:17.847Z,100524.75
2022-08-12T07:43:50.762Z,100525.72
2022-08-12T07:46:21.526Z,100498.38
2022-08-12T07:48:51.736Z,100526.81
2022-08-12T07:51:24.784Z,100519.50
2022-08-12T07:54:01.122Z,100521.88
2022-08-12T07:56:31.505Z,100495.53
2022-08-12T07:59:04.185Z,100511.69
2022-08-12T08:01:34.395Z,100518.63
2022-08-12T08:04:19.989Z,100517.50
2022-08-12T08:06:47.918Z,100514.38
2022-08-12T08:09:17.155Z,100517.06
2022-08-12T08:12:02.591Z,100525.16
2022-08-12T08:14:29.708Z,100517.63
2022-08-12T08:16:59.396Z,100510.34
2022-08-12T08:19:29.807Z,100511.41
2022-08-12T08:21:59.875Z,100515.09
2022-08-12T08:24:28.363Z,100513.25
2022-08-12T08:26:58.783Z,100522.25
2022-08-12T08:29:26.599Z,100516.50
2022-08-12T08:32:01.317Z,100512.81
2022-08-12T08:34:54.174Z,100510.56
2022-08-12T08:37:20.611Z,100510.97
2022-08-12T08:39:47.785Z,100515.91
2022-08-12T08:42:33.487Z,100519.53
2022-08-12T08:45:00.846Z,100519.97
2022-08-12T08:47:27.991Z,100517.44
2022-08-12T08:50:01.425Z,100509.59
2022-08-12T08:52:40.513Z,100507.97
2022-08-12T08:55:18.776Z,100508.50
2022-08-12T08:57:53.516Z,100498.38
2022-08-12T09:00:36.583Z,100502.84
2022-08-12T09:04:21.552Z,100502.81
2022-08-12T09:06:02.073Z,100503.75
2022-08-12T09:08:30.004Z,100491.47
2022-08-12T09:11:00.142Z,100492.59
2022-08-12T09:14:12.523Z,100458.53
2022-08-12T09:16:27.960Z,100492.13
2022-08-12T09:18:58.483Z,100480.94
2022-08-12T09:21:31.565Z,100486.31
2022-08-12T09:24:21.752Z,100479.69
2022-08-12T09:26:49.949Z,100476.44
2022-08-12T09:30:10.143Z,100479.69
2022-08-12T09:32:31.315Z,100471.25
2022-08-12T09:34:59.075Z,100478.00
2022-08-12T09:37:55.133Z,100477.41
2022-08-12T09:40:57.215Z,100456.09
2022-08-12T09:43:24.453Z,100473.63
2022-08-12T09:46:11.333Z,100465.78
2022-08-12T09:48:55.672Z,100453.03
2022-08-12T09:51:37.192Z,100416.34
2022-08-12T09:54:31.743Z,100452.22
2022-08-12T09:57:03.164Z,100453.59
2022-08-12T10:00:16.371Z,100447.41
2022-08-12T10:02:42.339Z,100439.91
2022-08-12T10:05:17.736Z,100429.97
2022-08-12T10:07:50.811Z,100432.13
2022-08-12T10:10:23.838Z,100426.84
2022-08-12T10:13:34.937Z,100429.44
2022-08-12T10:16:06.028Z,100429.53
2022-08-12T10:18:35.629Z,100400.13
2022-08-12T10:21:08.041Z,100411.44
2022-08-12T10:23:39.803Z,100423.34
2022-08-12T10:26:37.054Z,100428.88
2022-08-12T10:30:03.432Z,100413.56
2022-08-12T10:33:02.257Z,100399.00
2022-08-12T10:35:08.025Z,100394.25
2022-08-12T10:38:33.219Z,100403.84
2022-08-12T10:40:28.554Z,100391.59
2022-08-12T10:43:17.109Z,100397.84
2022-08-12T10:45:47.435Z,100394.47
2022-08-12T10:48:21.108Z,100398.88
2022-08-12T10:50:56.606Z,100389.38
2022-08-12T10:53:45.535Z,100394.66
2022-08-12T10:56:18.205Z,100387.22
2022-08-12T10:58:48.053Z,100381.97
2022-08-12T11:01:48.889Z,100386.75
2022-08-12T11:04:31.294Z,100386.06
2022-08-12T11:08:34.412Z,100381.84
2022-08-12T11:10:03.020Z,100390.34
2022-08-12T11:12:58.539Z,100376.13
2022-08-12T11:16:03.444Z,100384.28
2022-08-12T11:18:32.025Z,100377.19
2022-08-12T11:21:07.208Z,100364.88
2022-08-12T11:24:01.747Z,100357.84
2022-08-12T11:26:29.151Z,100369.09
2022-08-12T11:29:22.552Z,100356.16
2022-08-12T11:32:02.168Z,100359.44
2022-08-12T11:34:53.757Z,100352.16
2022-08-12T11:37:27.046Z,100357.50
2022-08-12T11:40:03.515Z,100355.59
2022-08-12T11:42:39.717Z,100357.50
2022-08-12T11:45:38.747Z,100355.38
2022-08-12T11:48:06.444Z,100355.22
2022-08-12T11:50:43.979Z,100348.88
2022-08-12T11:53:56.411Z,100343.38
2022-08-12T11:56:15.549Z,100341.91
2022-08-12T12:01:58.883Z,100336.44
2022-08-12T12:04:29.200Z,100308.38
2022-08-12T12:07:07.499Z,100319.84
2022-08-12T12:09:53.315Z,100329.06
2022-08-12T12:12:25.096Z,100330.34
2022-08-12T12:15:24.951Z,100323.00
2022-08-12T12:17:55.680Z,100311.97
2022-08-12T12:20:49.258Z,100306.66
2022-08-12T12:23:29.211Z,100313.41
2022-08-12T12:26:08.011Z,100283.03
2022-08-12T12:28:37.662Z,100303.44
2022-08-12T12:31:14.957Z,100298.69
2022-08-12T12:33:58.953Z,100297.03
2022-08-12T12:36:40.502Z,100283.06
2022-08-12T12:39:10.556Z,100288.31
2022-08-12T12:42:42.692Z,100297.91
2022-08-12T12:44:50.957Z,100290.56
2022-08-12T12:47:42.359Z,100279.44
2022-08-12T12:50:35.080Z,100276.25
2022-08-12T12:54:09.032Z,100273.22
2022-08-12T12:56:33.921Z,100249.63
2022-08-12T12:59:04.076Z,100236.78
2022-08-12T13:01:41.796Z,100258.81
2022-08-12T13:04:13.768Z,100255.53
2022-08-12T13:06:42.224Z,100260.06
2022-08-12T13:09:13.598Z,100260.56
2022-08-12T13:11:44.826Z,100263.34
2022-08-12T13:14:27.962Z,100270.34
2022-08-12T13:17:03.554Z,100277.31
2022-08-12T13:19:46.690Z,100283.25
2022-08-12T13:22:19.066Z,100278.34
2022-08-12T13:24:57.056Z,100276.91
2022-08-12T13:27:36.385Z,100267.00
2022-08-12T13:30:43.209Z,100264.06
2022-08-12T13:34:32.585Z,100261.84
2022-08-12T13:36:57.317Z,100259.22
2022-08-12T13:39:41.863Z,100253.06
2022-08-12T13:42:14.939Z,100235.50
2022-08-12T13:44:53.710Z,100259.03
2022-08-12T13:47:43.944Z,100246.56
2022-08-12T13:50:12.673Z,100257.56
2022-08-12T13:52:43.719Z,100251.94
2022-08-12T13:55:16.818Z,100260.22
2022-08-12T13:57:54.184Z,100250.00
2022-08-12T14:00:53.529Z,100248.84
2022-08-12T14:03:22.758Z,100250.25
2022-08-12T14:05:59.636Z,100254.06
2022-08-12T14:08:34.440Z,100250.44
2022-08-12T14:11:12.378Z,100244.44
2022-08-12T14:14:20.105Z,100250.53
2022-08-12T14:16:52.204Z,100239.41
2022-08-12T14:19:32.925Z,100229.97
2022-08-12T14:22:36.107Z,100232.31
2022-08-12T14:25:07.946Z,100230.81
2022-08-12T14:28:06.279Z,100223.59
2022-08-12T14:30:36.913Z,100213.53
2022-08-12T14:33:09.172Z,100214.50
2022-08-12T14:35:41.180Z,100211.69
2022-08-12T14:38:42.108Z,100223.22
2022-08-12T14:41:15.076Z,100213.28
2022-08-12T14:43:59.302Z,100218.84
2022-08-12T14:46:30.755Z,100216.84
2022-08-12T14:50:00.605Z,100221.72
2022-08-12T14:53:12.214Z,100212.00
2022-08-12T14:56:59.406Z,100201.59
2022-08-12T14:57:35.705Z,100203.13
2022-08-12T15:00:52.436Z,100203.91
2022-08-12T15:03:23.502Z,100196.69
2022-08-12T15:06:39.880Z,100200.72
2022-08-12T15:08:59.547Z,100209.50
2022-08-12T15:11:48.905Z,100209.13
2022-08-12T15:14:45.744Z,100210.53
2022-08-12T15:17:37.542Z,100189.53
2022-08-12T15:20:32.612Z,100203.97
2022-08-12T15:23:18.083Z,100195.66
2022-08-12T15:26:02.521Z,100207.56
2022-08-12T15:28:55.202Z,100194.50
2022-08-12T15:31:59.846Z,100172.50
2022-08-12T15:34:22.635Z,100200.03
2022-08-12T15:37:18.490Z,100205.91
2022-08-12T15:39:55.366Z,100195.06
2022-08-12T15:42:37.088Z,100199.44
2022-08-12T15:45:11.393Z,100184.19
2022-08-12T15:48:04.543Z,100199.78
2022-08-12T15:50:45.494Z,100197.91
2022-08-12T15:53:17.400Z,100200.94
2022-08-12T15:55:49.641Z,100160.56
2022-08-12T15:58:18.329Z,100195.63
2022-08-12T16:00:52.675Z,100194.91
2022-08-12T16:03:46.070Z,100190.19
2022-08-12T16:06:31.197Z,100188.88
2022-08-12T16:09:11.016Z,100187.78
2022-08-12T16:11:41.246Z,100174.94
2022-08-12T16:14:11.488Z,100183.78
2022-08-12T16:16:40.993Z,100190.63
2022-08-12T16:19:09.096Z,100193.75
2022-08-12T16:21:52.972Z,100182.53
2022-08-12T16:24:28.999Z,100182.34
2022-08-12T16:26:56.665Z,100183.16
2022-08-12T16:29:38.701Z,100164.94
2022-08-12T16:32:21.941Z,100172.66
2022-08-12T16:34:54.829Z,100176.97
2022-08-12T16:37:32.725Z,100180.47
2022-08-12T16:40:14.531Z,100161.91
2022-08-12T16:42:53.940Z,100172.03
2022-08-12T16:45:32.296Z,100163.75
2022-08-12T16:48:33.864Z,100172.53
2022-08-12T16:51:09.408Z,100177.38
2022-08-12T16:53:44.548Z,100167.97
2022-08-12T16:56:15.069Z,100162.34
2022-08-12T16:58:43.305Z,100143.78
2022-08-12T17:01:14.918Z,100168.22
2022-08-12T17:04:00.122Z,100162.09
2022-08-12T17:06:32.596Z,100165.56
2022-08-12T17:09:08.816Z,100154.88
2022-08-12T17:11:50.437Z,100165.75
2022-08-12T17:14:23.409Z,100174.66
2022-08-12T17:17:05.238Z,100162.91
2022-08-12T17:20:29.111Z,100163.22
2022-08-12T17:22:46.699Z,100163.34
2022-08-12T17:25:14.881Z,100163.69
2022-08-12T17:27:57.109Z,100169.28
2022-08-12T17:30:28.995Z,100143.03
2022-08-12T17:33:24.693Z,100155.16
2022-08-12T17:35:58.663Z,100162.22
2022-08-12T17:38:39.161Z,100165.09
2022-08-12T17:41:23.102Z,100170.94
2022-08-12T17:44:04.160Z,100164.41
2022-08-12T17:46:33.755Z,100167.91
2022-08-12T17:49:01.102Z,100178.81
2022-08-12T17:51:50.504Z,100174.66
2022-08-12T17:54:31.196Z,100143.22
2022-08-12T17:57:01.474Z,100176.53
2022-08-12T17:59:48.189Z,100187.69
2022-08-12T18:02:30.948Z,100178.00
2022-08-12T18:05:09.806Z,100194.84
2022-08-12T18:07:40.910Z,100197.91
2022-08-12T18:10:36.006Z,100149.94
2022-08-12T18:13:09.772Z,100187.28
2022-08-12T18:16:03.858Z,100183.22
2022-08-12T18:18:39.630Z,100190.91
2022-08-12T18:21:14.182Z,100191.16
2022-08-12T18:23:53.864Z,100202.47
2022-08-12T18:26:23.859Z,100200.63
2022-08-12T18:29:00.106Z,100203.03
2022-08-12T18:31:44.712Z,100188.47
2022-08-12T18:34:40.173Z,100199.47
2022-08-12T18:37:41.951Z,100194.06
2022-08-12T18:40:27.914Z,100195.09
2022-08-12T18:42:57.021Z,100166.06
2022-08-12T18:45:31.375Z,100201.38
2022-08-12T18:48:15.812Z,100206.66
2022-08-12T18:50:49.392Z,100205.53
2022-08-12T18:54:06.026Z,100200.44
2022-08-12T18:56:07.565Z,100211.63
2022-08-12T18:58:59.937Z,100207.56
2022-08-12T19:02:21.240Z,100211.94
2022-08-12T19:04:16.585Z,100190.09
2022-08-12T19:06:54.099Z,100208.69
2022-08-12T19:09:23.977Z,100201.47
2022-08-12T19:12:32.410Z,100208.09
2022-08-12T19:15:05.661Z,100216.56
2022-08-12T19:17:56.142Z,100212.94
2022-08-12T19:20:36.022Z,100212.38
2022-08-12T19:23:16.396Z,100181.47
2022-08-12T19:26:02.108Z,100223.84
2022-08-12T19:28:38.749Z,100216.16
2022-08-12T19:31:45.186Z,100218.69
2022-08-12T19:36:07.116Z,100210.34
2022-08-12T19:38:03.593Z,100209.47
2022-08-12T19:40:37.270Z,100201.16
2022-08-12T19:43:20.194Z,100155.81
2022-08-12T19:45:56.752Z,100216.78
2022-08-12T19:48:34.868Z,100222.28
2022-08-12T19:51:24.356Z,100219.97
2022-08-12T19:53:58.664Z,100224.81
2022-08-12T19:56:29.609Z,100230.09
2022-08-12T19:59:22.617Z,100226.72
2022-08-12T20:02:02.761Z,100240.38
2022-08-12T20:04:41.122Z,100227.50
2022-08-12T20:07:23.823Z,100235.13
2022-08-12T20:09:59.192Z,100239.72
2022-08-12T20:12:53.768Z,100240.63
2022-08-12T20:15:45.086Z,100236.22
2022-08-12T20:18:53.228Z,100239.94
2022-08-12T20:21:24.258Z,100235.59
2022-08-12T20:23:59.992Z,100234.41
2022-08-12T20:26:43.174Z,100240.38
2022-08-12T20:29:18.850Z,100230.06
2022-08-12T20:31:56.394Z,100240.13
2022-08-12T20:34:48.346Z,100244.28
2022-08-12T20:38:07.547Z,100226.06
2022-08-12T20:40:38.750Z,100242.53
2022-08-12T20:43:08.883Z,100236.91
2022-08-12T20:45:57.154Z,100248.91
2022-08-12T20:48:30.424Z,100249.03
2022-08-12T20:51:04.623Z,100252.72
2022-08-12T20:53:54.147Z,100247.03
2022-08-12T20:56:37.172Z,100251.38
2022-08-12T20:59:20.069Z,100251.56
2022-08-12T21:01:49.121Z,100257.06
2022-08-12T21:04:37.226Z,100263.78
2022-08-12T21:07:09.199Z,100233.00
2022-08-12T21:09:47.594Z,100257.25
2022-08-12T21:12:28.108Z,100258.28
2022-08-12T21:15:17.160Z,100250.31
2022-08-12T21:18:15.327Z,100256.22
2022-08-12T21:20:57.462Z,100253.72
2022-08-12T21:23:31.045Z,100256.81
2022-08-12T21:26:12.399Z,100246.19
2022-08-12T21:28:58.105Z,100244.09
2022-08-12T21:32:37.547Z,100216.13
2022-08-12T21:34:26.052Z,100258.97
2022-08-12T21:37:26.526Z,100262.41
2022-08-12T21:39:57.909Z,100256.06
2022-08-12T21:42:31.796Z,100264.28
2022-08-12T21:45:47.775Z,100270.34
2022-08-12T21:48:01.310Z,100257.34
2022-08-12T21:50:35.796Z,100267.97
2022-08-12T21:53:17.138Z,100262.25
2022-08-12T21:55:56.156Z,100270.38
2022-08-12T21:58:29.043Z,100272.44
2022-08-12T22:01:07.317Z,100273.91
2022-08-12T22:04:11.526Z,100275.47
2022-08-12T22:06:46.995Z,100265.47
2022-08-12T22:09:23.139Z,100248.13
2022-08-12T22:11:59.974Z,100282.09
2022-08-12T22:14:33.400Z,100281.63
2022-08-12T22:17:05.175Z,100255.66
2022-08-12T22:19:45.088Z,100289.59
2022-08-12T22:22:24.112Z,100284.88
2022-08-12T22:25:07.792Z,100283.03
2022-08-12T22:28:02.403Z,100276.50
2022-08-12T22:30:51.136Z,100285.97
2022-08-12T22:33:30.348Z,100286.34
2022-08-12T22:36:28.436Z,100284.72
2022-08-12T22:39:02.834Z,100276.66
2022-08-12T22:41:56.963Z,100278.41
2022-08-12T22:44:54.414Z,100294.53
2022-08-12T22:47:45.747Z,100277.59
2022-08-12T22:50:29.542Z,100288.97
2022-08-12T22:53:17.358Z,100288.25
2022-08-12T22:56:17.060Z,100285.94
2022-08-12T22:58:51.047Z,100277.47
2022-08-12T23:01:50.163Z,100275.06
2022-08-12T23:04:15.624Z,100275.81
2022-08-12T23:06:58.574Z,100282.00
2022-08-12T23:09:44.851Z,100282.25
2022-08-12T23:12:39.582Z,100281.91
2022-08-12T23:15:13.472Z,100278.97
2022-08-12T23:17:42.877Z,100275.19
2022-08-12T23:20:11.387Z,100270.25
2022-08-12T23:22:40.224Z,100279.41
2022-08-12T23:25:20.966Z,100285.19
2022-08-12T23:28:29.864Z,100276.53
2022-08-12T23:31:04.711Z,100276.53
2022-08-12T23:34:02.664Z,100277.69
2022-08-12T23:36:39.091Z,100280.50
2022-08-12T23:40:06.737Z,100279.28
2022-08-12T23:42:17.625Z,100263.72
2022-08-12T23:44:44.813Z,100277.94
2022-08-12T23:47:13.223Z,100276.66
2022-08-12T23:49:57.295Z,100281.03
2022-08-12T23:52:33.943Z,100248.03
2022-08-12T23:55:25.026Z,100282.94
2022-08-12T23:58:17.878Z,100262.63
